Time;durP1;ratioP1;P1;durP2;ratioP2;P2;SDS_P1;SDS_P2;PMS_P1;PMS_P2;Temp;Humidity;BMP_temperature;BMP_pressure;BME280_temperature;BME280_humidity;BME280_pressure;Samples;Min_cycle;Max_cycle;Signal;HPM_P1;HPM_P2
2023/06/24 00:01:13;;;;;;;;;;;;;;;13.50;47.97;96430.06;5019740;28;19948;-78
2023/06/24 00:03:38;;;;;;;;;;;;;;;13.57;47.50;96426.47;5002637;28;19917;-79
2023/06/24 00:06:03;;;;;;;;;;;;;;;13.62;47.82;96431.31;5003941;28;20285;-81
2023/06/24 00:08:34;;;;;;;;;;;;;;;13.62;47.05;96422.44;5004921;28;19919;-83
2023/06/24 00:10:59;;;;;;;;;;;;;;;13.69;48.12;96431.41;5020700;28;19921;-78
2023/06/24 00:13:25;;;;;;;;;;;;;;;13.68;47.67;96429.75;5006247;28;19929;-81
2023/06/24 00:15:50;;;;;;;;;;;;;;;13.44;46.48;96431.59;5024733;28;20298;-79
2023/06/24 00:18:15;;;;;;;;;;;;;;;13.21;46.96;96442.22;4990623;28;20486;-80
2023/06/24 00:20:43;;;;;;;;;;;;;;;13.22;48.20;96436.69;5023947;28;19944;-82
2023/06/24 00:23:08;;;;;;;;;;;;;;;13.30;49.03;96435.84;5024538;28;20015;-80
2023/06/24 00:25:33;;;;;;;;;;;;;;;13.38;49.18;96429.59;5006730;28;20052;-82
2023/06/24 00:27:59;;;;;;;;;;;;;;;13.44;49.00;96434.25;5023524;28;20548;-84
2023/06/24 00:30:25;;;;;;;;;;;;;;;13.47;49.22;96433.06;5006211;28;19921;-82
2023/06/24 00:32:50;;;;;;;;;;;;;;;13.52;49.13;96434.22;5006161;28;19951;-82
2023/06/24 00:35:16;;;;;;;;;;;;;;;13.57;48.19;96431.81;5024448;28;19913;-77
2023/06/24 00:37:42;;;;;;;;;;;;;;;13.58;47.70;96432.66;5005110;28;19916;-79
2023/06/24 00:40:15;;;;;;;;;;;;;;;13.56;46.95;96423.97;5024245;28;19917;-78
2023/06/24 00:42:41;;;;;;;;;;;;;;;13.51;48.22;96427.19;5006811;28;19913;-80
2023/06/24 00:45:07;;;;;;;;;;;;;;;13.50;47.62;96427.38;5006275;28;20592;-79
2023/06/24 00:47:33;;;;;;;;;;;;;;;13.43;47.62;96422.72;5023632;28;19917;-80
2023/06/24 00:49:58;;;;;;;;;;;;;;;13.47;47.95;96433.06;5006590;28;19917;-78
2023/06/24 00:52:23;;;;;;;;;;;;;;;13.49;47.63;96431.06;5006476;28;19921;-81
2023/06/24 00:54:49;;;;;;;;;;;;;;;13.54;47.88;96434.03;5006565;28;20039;-82
2023/06/24 00:57:14;;;;;;;;;;;;;;;13.54;47.61;96434.03;5003920;28;20185;-79
2023/06/24 00:59:40;;;;;;;;;;;;;;;13.50;47.90;96427.38;5005483;28;20032;-81
2023/06/24 01:02:05;;;;;;;;;;;;;;;13.53;48.00;96435.06;5006556;28;19916;-78
2023/06/24 01:04:33;;;;;;;;;;;;;;;13.28;47.10;96436.00;5043360;23;20003;-74
2023/06/24 01:06:58;;;;;;;;;;;;;;;13.13;47.38;96435.09;5024321;28;19913;-72
2023/06/24 01:09:24;;;;;;;;;;;;;;;13.06;47.53;96437.63;4987550;28;19921;-71
2023/06/24 01:11:49;;;;;;;;;;;;;;;12.99;47.41;96436.63;5005233;28;19917;-73
2023/06/24 01:14:14;;;;;;;;;;;;;;;12.90;48.11;96442.00;4989272;28;19913;-74
2023/06/24 01:16:45;;;;;;;;;;;;;;;12.97;49.63;96435.94;5007861;28;19913;-74
2023/06/24 01:19:29;;;;;;;;;;;;;;;13.02;47.66;96434.47;5023343;28;19991;-74
2023/06/24 01:21:54;;;;;;;;;;;;;;;13.02;48.59;96423.75;5020374;28;19916;-74
2023/06/24 01:24:27;;;;;;;;;;;;;;;13.02;48.91;96423.75;5002943;28;20636;-73
2023/06/24 01:26:55;;;;;;;;;;;;;;;13.07;48.86;96425.09;4995295;28;19921;-72
2023/06/24 01:29:44;;;;;;;;;;;;;;;13.10;48.66;96424.75;5004827;28;19921;-73
2023/06/24 01:32:16;;;;;;;;;;;;;;;12.96;47.98;96431.63;5004985;28;19925;-73
2023/06/24 01:34:47;;;;;;;;;;;;;;;12.85;48.13;96435.50;5021571;28;19933;-73
2023/06/24 01:37:25;;;;;;;;;;;;;;;12.88;48.83;96430.63;5003214;28;19928;-72
2023/06/24 01:40:10;;;;;;;;;;;;;;;12.91;48.40;96432.97;5023303;28;20298;-73
2023/06/24 01:42:36;;;;;;;;;;;;;;;12.95;48.73;96419.28;5013253;28;19909;-73
2023/06/24 01:45:02;;;;;;;;;;;;;;;12.96;48.90;96418.25;4987952;28;20495;-73
2023/06/24 01:47:27;;;;;;;;;;;;;;;12.99;48.81;96417.91;4986741;28;20007;-73
2023/06/24 01:49:53;;;;;;;;;;;;;;;12.96;48.28;96419.09;5023626;28;19909;-73
2023/06/24 01:52:19;;;;;;;;;;;;;;;12.91;48.74;96426.78;5022296;28;19921;-73
2023/06/24 01:54:44;;;;;;;;;;;;;;;12.77;48.21;96426.50;5004879;28;20596;-73
2023/06/24 01:57:09;;;;;;;;;;;;;;;12.62;47.99;96429.03;5022636;28;19917;-71
2023/06/24 01:59:36;;;;;;;;;;;;;;;12.59;48.46;96423.22;5004595;28;19917;-72
2023/06/24 02:02:02;;;;;;;;;;;;;;;12.62;48.89;96426.38;5004166;28;19912;-74
2023/06/24 02:04:30;;;;;;;;;;;;;;;12.61;48.90;96424.72;5007585;28;19982;-72
2023/06/24 02:06:56;;;;;;;;;;;;;;;12.62;49.21;96426.38;5017978;28;20296;-72
2023/06/24 02:09:24;;;;;;;;;;;;;;;12.58;48.13;96426.91;5017862;28;20012;-73
2023/06/24 02:11:49;;;;;;;;;;;;;;;12.52;48.29;96423.06;4999189;28;19921;-73
2023/06/24 02:14:14;;;;;;;;;;;;;;;12.49;49.12;96418.91;5005910;28;19966;-73
2023/06/24 02:16:42;;;;;;;;;;;;;;;12.44;49.01;96420.44;5011046;28;20077;-75
2023/06/24 02:19:07;;;;;;;;;;;;;;;12.38;49.58;96422.75;5009745;28;20016;-72
2023/06/24 02:21:33;;;;;;;;;;;;;;;12.27;49.37;96423.94;4988091;28;20000;-71
2023/06/24 02:23:58;;;;;;;;;;;;;;;12.25;49.82;96417.13;5008543;28;19999;-73
2023/06/24 02:26:25;;;;;;;;;;;;;;;12.11;48.98;96419.44;5022785;28;19909;-72
2023/06/24 02:28:50;;;;;;;;;;;;;;;12.13;50.07;96421.97;5006168;28;19916;-73
2023/06/24 02:31:16;;;;;;;;;;;;;;;12.19;49.60;96428.47;5006862;28;19931;-73
2023/06/24 02:33:41;;;;;;;;;;;;;;;12.21;50.30;96427.28;4992303;28;19936;-73
2023/06/24 02:36:06;;;;;;;;;;;;;;;12.25;50.41;96425.13;5011939;28;20385;-72
2023/06/24 02:38:32;;;;;;;;;;;;;;;12.33;50.18;96421.59;4997291;28;20628;-74
2023/06/24 02:40:58;;;;;;;;;;;;;;;12.33;49.13;96424.28;5011065;28;19913;-73
2023/06/24 02:43:23;;;;;;;;;;;;;;;12.35;50.31;96420.44;5005694;28;19909;-74
2023/06/24 02:45:48;;;;;;;;;;;;;;;12.35;49.49;96430.28;5020267;28;19947;-73
2023/06/24 02:48:14;;;;;;;;;;;;;;;12.34;49.70;96425.97;5005852;28;19919;-73
2023/06/24 02:50:40;;;;;;;;;;;;;;;12.34;49.03;96425.97;5018363;28;20000;-73
2023/06/24 02:53:06;;;;;;;;;;;;;;;12.37;49.30;96428.25;4990445;28;19917;-73
2023/06/24 02:55:32;;;;;;;;;;;;;;;12.34;49.59;96431.28;5007009;28;19933;-73
2023/06/24 02:57:57;;;;;;;;;;;;;;;12.28;48.97;96433.63;4992565;28;19905;-73
2023/06/24 03:00:23;;;;;;;;;;;;;;;12.30;49.46;96435.31;5008514;28;19964;-72
2023/06/24 03:02:48;;;;;;;;;;;;;;;12.33;49.56;96433.13;5021399;28;19955;-73
2023/06/24 03:05:18;;;;;;;;;;;;;;;12.33;49.35;96432.28;4986960;28;20569;-72
2023/06/24 03:07:44;;;;;;;;;;;;;;;12.32;48.91;96426.13;5003369;28;19913;-74
2023/06/24 03:10:10;;;;;;;;;;;;;;;12.41;50.08;96435.78;4987760;28;19919;-74
2023/06/24 03:12:35;;;;;;;;;;;;;;;12.47;49.98;96430.75;5003157;28;19917;-73
2023/06/24 03:15:01;;;;;;;;;;;;;;;12.44;49.86;96431.13;4987024;28;19916;-73
2023/06/24 03:17:26;;;;;;;;;;;;;;;12.45;50.16;96428.28;5021079;28;20382;-73
2023/06/24 03:19:51;;;;;;;;;;;;;;;12.45;50.22;96436.28;4987307;28;19960;-72
2023/06/24 03:22:20;;;;;;;;;;;;;;;12.46;49.85;96445.13;5003183;28;19921;-72
2023/06/24 03:24:45;;;;;;;;;;;;;;;12.49;49.47;96442.09;5021090;28;19925;-72
2023/06/24 03:27:10;;;;;;;;;;;;;;;12.45;49.50;96444.28;4986840;28;20409;-72
2023/06/24 03:29:36;;;;;;;;;;;;;;;12.44;50.38;96441.78;5003250;28;20358;-74
2023/06/24 03:32:01;;;;;;;;;;;;;;;12.48;50.48;96446.59;5021558;28;19943;-73
2023/06/24 03:34:27;;;;;;;;;;;;;;;12.49;49.38;96444.78;5020596;28;19933;-72
2023/06/24 03:36:55;;;;;;;;;;;;;;;12.51;49.79;96446.28;5003682;28;20312;-73
2023/06/24 03:39:20;;;;;;;;;;;;;;;12.54;48.96;96439.75;5021807;28;19964;-72
2023/06/24 03:41:46;;;;;;;;;;;;;;;12.45;48.52;96443.44;5003077;28;19998;-74
2023/06/24 03:44:11;;;;;;;;;;;;;;;12.47;49.72;96446.78;5023181;28;19921;-74
2023/06/24 03:46:36;;;;;;;;;;;;;;;12.47;49.36;96449.44;5025791;28;19921;-74
2023/06/24 03:49:01;;;;;;;;;;;;;;;12.50;48.79;96449.94;5025271;28;19924;-71
2023/06/24 03:51:27;;;;;;;;;;;;;;;12.47;48.09;96441.44;5007198;28;19909;-75
2023/06/24 03:53:52;;;;;;;;;;;;;;;12.49;49.12;96444.78;5024742;28;19968;-73
2023/06/24 03:56:17;;;;;;;;;;;;;;;12.55;49.13;96444.13;5023065;28;19921;-71
2023/06/24 03:58:42;;;;;;;;;;;;;;;12.54;48.63;96443.25;5028126;28;20004;-71
2023/06/24 04:01:09;;;;;;;;;;;;;;;12.58;48.55;96438.41;5020925;28;19952;-74
2023/06/24 04:03:34;;;;;;;;;;;;;;;12.64;48.54;96435.06;5022216;28;20018;-74
2023/06/24 04:06:01;;;;;;;;;;;;;;;12.58;48.29;96438.41;5024600;28;19975;-73
2023/06/24 04:08:29;;;;;;;;;;;;;;;12.60;48.31;96443.56;5023250;28;19913;-73
2023/06/24 04:10:54;;;;;;;;;;;;;;;12.57;48.47;96443.94;5025008;28;19912;-72
2023/06/24 04:13:20;;;;;;;;;;;;;;;12.63;49.02;96440.56;5024450;28;20741;-74
2023/06/24 04:15:45;;;;;;;;;;;;;;;12.71;48.91;96445.88;5024867;28;19917;-75
2023/06/24 04:18:10;;;;;;;;;;;;;;;12.74;48.37;96445.56;5025425;28;19928;-72
2023/06/24 04:20:35;;;;;;;;;;;;;;;12.82;48.92;96439.38;5006938;28;20008;-72
2023/06/24 04:23:01;;;;;;;;;;;;;;;12.95;49.00;96446.00;5007440;28;19909;-74
2023/06/24 04:25:26;;;;;;;;;;;;;;;13.00;48.38;96438.31;5005754;28;20761;-73
2023/06/24 04:27:51;;;;;;;;;;;;;;;13.07;48.25;96439.28;5021874;28;19932;-73
2023/06/24 04:30:16;;;;;;;;;;;;;;;13.16;48.48;96440.91;5005162;28;19913;-71
2023/06/24 04:32:42;;;;;;;;;;;;;;;13.17;48.35;96436.41;5024686;28;20609;-74
2023/06/24 04:35:07;;;;;;;;;;;;;;;13.29;48.65;96445.69;5022813;28;19917;-74
2023/06/24 04:37:32;;;;;;;;;;;;;;;13.41;48.48;96454.16;5024428;28;19944;-72
2023/06/24 04:39:57;;;;;;;;;;;;;;;13.42;48.42;96446.97;5024454;28;20361;-74
2023/06/24 04:42:23;;;;;;;;;;;;;;;13.43;48.48;96452.13;5024463;28;19943;-75
2023/06/24 04:44:50;;;;;;;;;;;;;;;13.53;48.95;96456.44;5023280;28;19944;-74
2023/06/24 04:47:17;;;;;;;;;;;;;;;13.61;48.75;96458.22;5006879;28;19917;-72
2023/06/24 04:49:42;;;;;;;;;;;;;;;13.63;49.19;96466.91;5004649;28;19913;-72
2023/06/24 04:52:07;;;;;;;;;;;;;;;13.95;48.36;96468.53;5003071;28;19956;-74
2023/06/24 04:54:33;;;;;;;;;;;;;;;14.16;47.94;96461.72;5023671;28;19920;-73
2023/06/24 04:56:58;;;;;;;;;;;;;;;14.35;47.47;96459.56;5023340;28;20434;-73
2023/06/24 04:59:23;;;;;;;;;;;;;;;14.57;47.43;96463.19;5025180;28;19913;-71
2023/06/24 05:01:48;;;;;;;;;;;;;;;14.62;47.64;96459.94;5024513;28;19952;-74
2023/06/24 05:04:14;;;;;;;;;;;;;;;14.71;47.83;96464.22;5022071;28;19925;-73
2023/06/24 05:06:39;;;;;;;;;;;;;;;14.91;47.62;96463.69;5006322;28;19931;-74
2023/06/24 05:09:04;;;;;;;;;;;;;;;15.03;47.92;96472.09;4987117;28;20389;-73
2023/06/24 05:11:29;;;;;;;;;;;;;;;15.22;47.84;96470.69;5023391;28;19967;-73
2023/06/24 05:13:55;;;;;;;;;;;;;;;15.46;47.30;96465.19;5023517;28;19924;-73
2023/06/24 05:16:20;;;;;;;;;;;;;;;15.73;47.17;96466.34;5023934;28;19956;-72
2023/06/24 05:18:46;;;;;;;;;;;;;;;15.90;46.90;96467.97;5024225;28;19917;-73
2023/06/24 05:21:11;;;;;;;;;;;;;;;15.97;47.05;96468.84;5024020;28;19924;-74
2023/06/24 05:23:36;;;;;;;;;;;;;;;16.06;47.25;96470.41;5004548;28;20031;-75
2023/06/24 05:26:01;;;;;;;;;;;;;;;16.26;46.93;96464.38;5022109;28;19920;-73
2023/06/24 05:28:27;;;;;;;;;;;;;;;16.45;46.03;96459.38;5005473;28;19975;-73
2023/06/24 05:30:52;;;;;;;;;;;;;;;16.72;45.38;96462.25;5005698;28;20569;-73
2023/06/24 05:33:17;;;;;;;;;;;;;;;16.98;44.50;96461.59;4986213;28;20374;-74
2023/06/24 05:35:43;;;;;;;;;;;;;;;17.13;43.64;96466.00;5023808;28;19917;-71
2023/06/24 05:38:08;;;;;;;;;;;;;;;17.32;43.04;96469.00;5005925;28;19963;-73
2023/06/24 05:40:33;;;;;;;;;;;;;;;17.53;41.87;96479.66;5004026;28;19925;-73
2023/06/24 05:42:58;;;;;;;;;;;;;;;17.74;41.69;96477.03;5020419;28;19931;-72
2023/06/24 05:45:24;;;;;;;;;;;;;;;17.90;41.09;96473.16;5008484;28;20938;-73
2023/06/24 05:47:49;;;;;;;;;;;;;;;18.04;42.01;96479.38;5002898;28;19921;-74
2023/06/24 05:50:14;;;;;;;;;;;;;;;18.26;40.61;96479.22;5022532;28;19920;-72
2023/06/24 05:52:39;;;;;;;;;;;;;;;18.42;40.37;96475.25;5003376;28;20023;-74
2023/06/24 05:55:05;;;;;;;;;;;;;;;18.55;39.78;96475.28;5022270;28;19928;-75
2023/06/24 05:57:30;;;;;;;;;;;;;;;18.65;39.97;96472.19;5022215;28;20400;-73
2023/06/24 05:59:55;;;;;;;;;;;;;;;18.88;39.00;96475.47;5022447;28;19916;-72
2023/06/24 06:02:21;;;;;;;;;;;;;;;19.11;39.12;96474.16;5003436;28;19920;-73
2023/06/24 06:04:46;;;;;;;;;;;;;;;19.12;37.42;96467.72;5008645;28;20448;-74
2023/06/24 06:07:11;;;;;;;;;;;;;;;19.30;37.08;96467.06;5018689;28;19915;-72
2023/06/24 06:09:37;;;;;;;;;;;;;;;19.42;36.91;96464.53;4993289;28;19963;-75
2023/06/24 06:12:02;;;;;;;;;;;;;;;19.55;35.88;96466.34;5022238;28;19917;-71
2023/06/24 06:14:28;;;;;;;;;;;;;;;18.82;37.53;96469.88;5012118;28;19913;-74
2023/06/24 06:16:53;;;;;;;;;;;;;;;19.24;36.07;96468.72;5022209;28;19967;-73
2023/06/24 06:19:18;;;;;;;;;;;;;;;19.57;35.92;96486.69;5011026;28;19913;-72
2023/06/24 06:21:43;;;;;;;;;;;;;;;19.68;36.10;96476.25;5022247;28;19996;-73
2023/06/24 06:24:09;;;;;;;;;;;;;;;19.59;35.30;96484.59;5017324;28;20474;-75
2023/06/24 06:26:34;;;;;;;;;;;;;;;19.70;35.46;96479.56;5015400;28;19936;-73
2023/06/24 06:28:59;;;;;;;;;;;;;;;20.01;35.65;96471.72;5013080;28;20094;-72
2023/06/24 06:31:25;;;;;;;;;;;;;;;19.32;36.19;96482.03;5022188;28;19916;-74
2023/06/24 06:33:51;;;;;;;;;;;;;;;18.71;37.34;96478.59;5021669;28;20004;-74
2023/06/24 06:36:16;;;;;;;;;;;;;;;19.70;36.28;96482.25;5022047;28;20103;-74
2023/06/24 06:38:41;;;;;;;;;;;;;;;19.69;35.97;96488.72;4988602;28;20468;-72
2023/06/24 06:41:07;;;;;;;;;;;;;;;20.33;35.29;96482.53;5021720;28;20022;-74
2023/06/24 06:43:33;;;;;;;;;;;;;;;20.81;34.08;96488.38;5020909;28;19920;-73
2023/06/24 06:45:58;;;;;;;;;;;;;;;20.30;35.01;96482.97;5007587;28;20768;-75
2023/06/24 06:48:23;;;;;;;;;;;;;;;20.94;33.48;96482.81;5021857;28;19917;-73
2023/06/24 06:50:49;;;;;;;;;;;;;;;19.04;36.52;96490.38;5010718;28;19955;-73
2023/06/24 06:53:14;;;;;;;;;;;;;;;19.15;37.91;96487.03;5020474;28;20004;-73
2023/06/24 06:55:40;;;;;;;;;;;;;;;19.67;35.59;96488.09;5003197;28;20305;-75
2023/06/24 06:58:05;;;;;;;;;;;;;;;19.99;35.79;96481.94;5020458;28;19912;-74
2023/06/24 07:00:30;;;;;;;;;;;;;;;20.55;34.81;96485.66;5020726;28;19925;-72
2023/06/24 07:02:55;;;;;;;;;;;;;;;21.03;33.41;96480.66;5004078;28;20000;-73
2023/06/24 07:05:21;;;;;;;;;;;;;;;20.95;33.24;96483.66;5002913;28;19921;-74
2023/06/24 07:07:46;;;;;;;;;;;;;;;21.38;33.72;96482.78;5021797;28;19920;-73
2023/06/24 07:10:12;;;;;;;;;;;;;;;21.56;32.69;96491.97;4996872;28;20000;-73
2023/06/24 07:12:37;;;;;;;;;;;;;;;21.48;32.88;96486.88;4984302;28;20473;-73
2023/06/24 07:15:02;;;;;;;;;;;;;;;21.57;32.47;96487.34;5021755;28;19917;-74
2023/06/24 07:17:28;;;;;;;;;;;;;;;21.60;31.22;96486.91;4983782;28;20004;-74
2023/06/24 07:19:53;;;;;;;;;;;;;;;21.60;31.64;96482.31;5017473;28;20519;-75
2023/06/24 07:22:18;;;;;;;;;;;;;;;21.44;32.07;96491.88;5002144;28;19939;-72
2023/06/24 07:24:43;;;;;;;;;;;;;;;21.53;32.78;96488.88;5016501;28;20019;-74
2023/06/24 07:27:09;;;;;;;;;;;;;;;21.29;31.91;96489.56;5000952;28;19975;-74
2023/06/24 07:29:34;;;;;;;;;;;;;;;21.32;33.33;96485.59;5021017;28;20548;-74
2023/06/24 07:31:59;;;;;;;;;;;;;;;21.38;33.18;96484.66;5021214;28;19925;-72
2023/06/24 07:34:24;;;;;;;;;;;;;;;21.87;31.12;96481.97;5002145;28;19913;-72
2023/06/24 07:36:50;;;;;;;;;;;;;;;20.71;33.31;96491.59;4986238;28;20577;-75
2023/06/24 07:39:16;;;;;;;;;;;;;;;21.43;31.63;96492.94;5001102;28;19917;-75
2023/06/24 07:41:42;;;;;;;;;;;;;;;21.10;32.47;96497.66;5017258;28;19917;-73
2023/06/24 07:44:07;;;;;;;;;;;;;;;21.81;31.05;96492.88;4983337;28;19928;-71
2023/06/24 07:46:33;;;;;;;;;;;;;;;20.80;33.00;96498.38;5020068;28;19943;-75
2023/06/24 07:48:58;;;;;;;;;;;;;;;21.59;32.59;96496.91;4981378;28;19925;-74
2023/06/24 07:51:23;;;;;;;;;;;;;;;21.94;31.71;96491.91;5017892;28;19913;-74
2023/06/24 07:53:48;;;;;;;;;;;;;;;22.04;31.42;96492.19;5002958;28;19920;-72
2023/06/24 07:56:14;;;;;;;;;;;;;;;21.37;32.49;96500.09;5000664;28;20067;-74
2023/06/24 07:58:39;;;;;;;;;;;;;;;21.07;33.18;96495.41;5002598;28;19916;-75
2023/06/24 08:01:04;;;;;;;;;;;;;;;21.84;31.53;96498.69;5018899;28;20356;-72
2023/06/24 08:03:30;;;;;;;;;;;;;;;20.68;33.46;96500.16;5020906;28;19928;-73
2023/06/24 08:05:56;;;;;;;;;;;;;;;20.40;34.71;96495.97;5018542;28;19921;-74
2023/06/24 08:08:21;;;;;;;;;;;;;;;19.66;35.61;96499.94;5002053;28;19925;-74
2023/06/24 08:10:46;;;;;;;;;;;;;;;21.37;33.38;96488.44;4997836;28;19947;-73
2023/06/24 08:13:12;;;;;;;;;;;;;;;20.81;33.82;96491.09;5020058;28;20861;-74
2023/06/24 08:15:37;;;;;;;;;;;;;;;21.92;32.49;96489.41;5020876;28;19924;-76
2023/06/24 08:18:02;;;;;;;;;;;;;;;22.66;31.31;96491.03;5003222;28;19913;-72
2023/06/24 08:20:27;;;;;;;;;;;;;;;23.26;30.23;96490.19;5003210;28;19913;-72
2023/06/24 08:22:53;;;;;;;;;;;;;;;23.30;30.55;96485.94;5003299;28;19976;-74
2023/06/24 08:25:18;;;;;;;;;;;;;;;23.33;30.41;96488.16;5020838;28;20305;-75
2023/06/24 08:27:46;;;;;;;;;;;;;;;23.40;29.63;96478.00;5019636;28;19921;-75
2023/06/24 08:30:11;;;;;;;;;;;;;;;22.21;31.25;96472.53;5004981;28;20328;-74
2023/06/24 08:32:37;;;;;;;;;;;;;;;22.87;30.31;96477.91;4989114;28;19931;-75
2023/06/24 08:35:02;;;;;;;;;;;;;;;23.38;30.11;96473.84;5025179;28;19913;-73
2023/06/24 08:37:27;;;;;;;;;;;;;;;23.46;30.08;96478.94;5006217;28;19913;-72
2023/06/24 08:39:53;;;;;;;;;;;;;;;23.84;29.44;96478.56;5006004;28;19963;-74
2023/06/24 08:42:18;;;;;;;;;;;;;;;23.96;28.46;96483.97;5024038;28;19917;-74
2023/06/24 08:44:43;;;;;;;;;;;;;;;21.31;31.40;96484.75;5005992;28;19995;-74
2023/06/24 08:47:08;;;;;;;;;;;;;;;21.47;32.71;96482.47;5024583;28;19917;-72
2023/06/24 08:49:34;;;;;;;;;;;;;;;23.43;28.79;96476.69;4989609;28;19920;-73
2023/06/24 08:52:00;;;;;;;;;;;;;;;24.26;28.21;96480.13;5005013;28;19928;-72
2023/06/24 08:54:25;;;;;;;;;;;;;;;23.74;27.82;96485.47;4988021;28;19915;-72
2023/06/24 08:56:51;;;;;;;;;;;;;;;24.03;28.68;96479.22;4987361;28;19917;-75
2023/06/24 08:59:19;;;;;;;;;;;;;;;24.66;28.30;96494.66;5008468;28;20003;-73
2023/06/24 09:01:44;;;;;;;;;;;;;;;24.86;26.63;96487.88;5023778;28;19917;-74
2023/06/24 09:04:10;;;;;;;;;;;;;;;25.24;27.74;96478.09;5005803;28;19967;-73
2023/06/24 09:06:35;;;;;;;;;;;;;;;24.58;27.81;96485.84;5023563;28;20198;-75
2023/06/24 09:09:00;;;;;;;;;;;;;;;24.73;28.30;96489.06;5005365;28;20456;-72
2023/06/24 09:11:27;;;;;;;;;;;;;;;25.05;27.83;96481.13;5004931;28;19909;-72
2023/06/24 09:13:58;;;;;;;;;;;;;;;26.01;25.59;96476.53;5024052;28;19917;-73
2023/06/24 09:16:23;;;;;;;;;;;;;;;26.34;25.87;96469.22;5005445;28;19920;-72
2023/06/24 09:18:49;;;;;;;;;;;;;;;26.16;25.23;96478.59;5005988;28;19908;-72
2023/06/24 09:21:20;;;;;;;;;;;;;;;23.73;28.12;96481.09;5004384;28;19944;-71
2023/06/24 09:23:46;;;;;;;;;;;;;;;24.41;28.06;96480.41;5004680;28;19941;-75
2023/06/24 09:26:11;;;;;;;;;;;;;;;25.57;25.98;96468.19;5023714;28;20006;-73
2023/06/24 09:28:36;;;;;;;;;;;;;;;25.76;25.79;96467.00;5023346;28;19920;-73
2023/06/24 09:31:08;;;;;;;;;;;;;;;26.20;26.12;96468.81;4989170;28;19916;-72
2023/06/24 09:33:34;;;;;;;;;;;;;;;26.56;25.55;96466.44;5005225;28;19971;-73
2023/06/24 09:36:01;;;;;;;;;;;;;;;27.17;24.82;96466.25;4988525;28;19921;-74
2023/06/24 09:38:33;;;;;;;;;;;;;;;25.46;25.62;96466.41;5023447;28;19924;-73
2023/06/24 09:41:03;;;;;;;;;;;;;;;24.07;27.57;96458.59;5004094;28;19963;-76
2023/06/24 09:43:28;;;;;;;;;;;;;;;26.26;25.56;96456.03;5005091;28;19913;-73
2023/06/24 09:45:54;;;;;;;;;;;;;;;26.72;24.45;96453.69;5005403;28;19917;-74
2023/06/24 09:48:19;;;;;;;;;;;;;;;25.53;25.40;96471.66;5005123;28;19913;-75
2023/06/24 09:50:47;;;;;;;;;;;;;;;25.58;25.25;96453.47;5004824;28;19916;-72
2023/06/24 09:53:12;;;;;;;;;;;;;;;25.89;25.72;96450.22;4988360;28;20396;-74
2023/06/24 09:55:43;;;;;;;;;;;;;;;25.14;26.83;96446.09;5022391;28;19917;-74
2023/06/24 09:58:08;;;;;;;;;;;;;;;26.02;24.58;96449.03;4990924;28;19971;-73
2023/06/24 10:00:34;;;;;;;;;;;;;;;25.79;25.02;96447.41;4987751;28;20554;-74
2023/06/24 10:02:59;;;;;;;;;;;;;;;26.13;24.74;96444.47;5004824;28;19913;-75
2023/06/24 10:05:24;;;;;;;;;;;;;;;26.65;24.25;96442.19;5004435;28;20421;-73
2023/06/24 10:07:50;;;;;;;;;;;;;;;26.50;24.48;96445.59;5004768;28;19920;-74
2023/06/24 10:10:15;;;;;;;;;;;;;;;27.19;23.84;96448.50;5004698;28;20435;-75
2023/06/24 10:12:40;;;;;;;;;;;;;;;27.39;23.21;96444.22;5021873;28;19958;-72
2023/06/24 10:15:06;;;;;;;;;;;;;;;27.22;24.33;96433.50;5005252;28;19956;-72
2023/06/24 10:17:31;;;;;;;;;;;;;;;27.72;24.11;96430.41;4988011;28;19921;-75
2023/06/24 10:19:56;;;;;;;;;;;;;;;28.30;23.95;96429.38;5021543;28;19959;-73
2023/06/24 10:22:22;;;;;;;;;;;;;;;27.76;22.87;96429.59;5005052;28;20458;-72
2023/06/24 10:24:48;;;;;;;;;;;;;;;28.00;22.69;96431.81;5003616;28;20493;-74
2023/06/24 10:27:17;;;;;;;;;;;;;;;27.60;24.00;96433.38;4988306;28;19909;-71
2023/06/24 10:29:44;;;;;;;;;;;;;;;27.54;22.83;96428.97;5022215;28;19912;-74
2023/06/24 10:32:09;;;;;;;;;;;;;;;27.47;23.30;96426.47;5004113;28;20116;-74
2023/06/24 10:34:38;;;;;;;;;;;;;;;28.04;22.77;96434.81;5004328;28;20021;-74
2023/06/24 10:37:23;;;;;;;;;;;;;;;28.38;23.22;96428.03;5003942;28;19924;-74
2023/06/24 10:39:54;;;;;;;;;;;;;;;28.18;23.41;96431.59;4988327;28;19959;-73
2023/06/24 10:42:26;;;;;;;;;;;;;;;28.43;23.10;96430.75;5022718;28;19909;-72
2023/06/24 10:44:51;;;;;;;;;;;;;;;27.01;24.59;96426.00;5003313;28;19928;-75
2023/06/24 10:47:17;;;;;;;;;;;;;;;26.42;26.59;96418.78;5021898;28;19978;-73
2023/06/24 10:49:42;;;;;;;;;;;;;;;26.64;25.21;96417.88;5020700;28;19924;-74
2023/06/24 10:52:10;;;;;;;;;;;;;;;26.49;24.81;96416.66;5001393;28;19987;-74
2023/06/24 10:54:39;;;;;;;;;;;;;;;26.63;24.47;96411.59;4987698;28;19947;-74
2023/06/24 10:57:04;;;;;;;;;;;;;;;25.78;25.85;96415.75;5003140;28;20441;-72
2023/06/24 10:59:39;;;;;;;;;;;;;;;26.69;24.87;96404.25;5021523;28;19987;-74
2023/06/24 11:02:05;;;;;;;;;;;;;;;26.01;25.68;96405.63;5004733;28;20011;-74
2023/06/24 11:04:30;;;;;;;;;;;;;;;26.30;26.09;96411.59;5021847;28;20020;-74
2023/06/24 11:06:58;;;;;;;;;;;;;;;26.21;25.34;96402.28;5022784;28;19921;-73
2023/06/24 11:09:24;;;;;;;;;;;;;;;26.23;26.26;96403.66;4987200;28;19920;-74
2023/06/24 11:11:49;;;;;;;;;;;;;;;26.07;25.27;96401.88;5021062;28;19925;-76
2023/06/24 11:14:15;;;;;;;;;;;;;;;26.73;24.17;96395.28;5022048;28;19971;-73
2023/06/24 11:16:40;;;;;;;;;;;;;;;27.42;22.98;96393.69;4987076;28;20471;-73
2023/06/24 11:19:06;;;;;;;;;;;;;;;27.15;23.73;96390.03;5004054;28;19917;-74
2023/06/24 11:21:34;;;;;;;;;;;;;;;26.60;24.67;96390.28;5021369;28;19972;-75
2023/06/24 11:24:02;;;;;;;;;;;;;;;27.06;23.95;96386.97;5004163;28;19986;-73
2023/06/24 11:26:28;;;;;;;;;;;;;;;26.09;24.29;96377.88;5020890;28;19921;-76
2023/06/24 11:28:53;;;;;;;;;;;;;;;26.36;24.83;96379.72;5003773;28;19948;-75
2023/06/24 11:31:18;;;;;;;;;;;;;;;27.33;23.50;96379.72;5003533;28;19912;-72
2023/06/24 11:33:48;;;;;;;;;;;;;;;27.58;23.05;96386.31;5021431;28;19917;-73
2023/06/24 11:36:16;;;;;;;;;;;;;;;27.53;22.02;96378.91;5021581;28;19913;-76
2023/06/24 11:38:41;;;;;;;;;;;;;;;28.10;22.78;96375.44;5020526;28;20364;-74
2023/06/24 11:41:07;;;;;;;;;;;;;;;27.57;23.02;96388.25;5002156;28;19917;-74
2023/06/24 11:43:33;;;;;;;;;;;;;;;27.35;23.08;96378.34;5003385;28;19917;-74
2023/06/24 11:45:58;;;;;;;;;;;;;;;26.19;24.18;96371.69;4987300;28;20733;-73
2023/06/24 11:48:27;;;;;;;;;;;;;;;27.36;23.27;96369.03;5003643;28;19932;-75
2023/06/24 11:50:55;;;;;;;;;;;;;;;27.26;23.34;96366.31;5003850;28;19913;-72
2023/06/24 11:53:31;;;;;;;;;;;;;;;27.80;22.93;96363.41;5002941;28;19917;-75
2023/06/24 11:55:56;;;;;;;;;;;;;;;28.18;21.89;96365.91;5020171;28;19928;-74
2023/06/24 11:58:21;;;;;;;;;;;;;;;28.73;22.58;96360.63;5003925;28;20460;-76
2023/06/24 12:00:48;;;;;;;;;;;;;;;29.18;22.62;96355.25;5021387;28;19917;-72
2023/06/24 12:03:13;;;;;;;;;;;;;;;28.87;22.06;96351.81;5003791;28;19909;-74
2023/06/24 12:05:44;;;;;;;;;;;;;;;28.48;21.88;96356.81;4990044;28;19920;-73
2023/06/24 12:08:09;;;;;;;;;;;;;;;28.70;20.00;96347.50;5023557;28;19923;-74
2023/06/24 12:10:35;;;;;;;;;;;;;;;28.88;20.70;96350.69;5005535;28;19909;-74
2023/06/24 12:13:00;;;;;;;;;;;;;;;29.22;20.55;96339.06;4987543;28;20461;-73
2023/06/24 12:15:26;;;;;;;;;;;;;;;26.31;22.72;96338.78;5006864;28;19915;-72
2023/06/24 12:17:51;;;;;;;;;;;;;;;27.96;21.70;96340.44;4990869;28;19913;-73
2023/06/24 12:20:17;;;;;;;;;;;;;;;29.21;18.91;96331.94;5024755;28;20615;-74
2023/06/24 12:22:44;;;;;;;;;;;;;;;28.60;20.55;96326.41;5023985;28;19913;-76
2023/06/24 12:25:09;;;;;;;;;;;;;;;28.60;20.46;96328.31;5006114;28;20012;-73
2023/06/24 12:27:34;;;;;;;;;;;;;;;29.04;21.55;96322.16;5005988;28;20007;-73
2023/06/24 12:30:00;;;;;;;;;;;;;;;30.00;19.07;96324.00;5007219;28;19917;-73
2023/06/24 12:32:25;;;;;;;;;;;;;;;30.29;18.47;96323.22;5023618;28;20456;-75
2023/06/24 12:34:51;;;;;;;;;;;;;;;29.09;18.51;96320.47;4990416;28;19991;-76
2023/06/24 12:37:16;;;;;;;;;;;;;;;29.80;19.24;96320.31;5002454;28;19952;-76
2023/06/24 12:39:41;;;;;;;;;;;;;;;28.46;20.03;96328.91;5024517;28;19923;-72
2023/06/24 12:42:06;;;;;;;;;;;;;;;29.74;19.52;96329.72;5005496;28;19920;-73